Time;durP1;ratioP1;P1;durP2;ratioP2;P2;SDS_P1;SDS_P2;PMS_P1;PMS_P2;Temp;Humidity;BMP_temperature;BMP_pressure;BME280_temperature;BME280_humidity;BME280_pressure;Samples;Min_cycle;Max_cycle;Signal;HPM_P1;HPM_P2
2022/08/02 00:00:45;;;;;;;;;9.00;9.00;;;;;22.34;65.07;101407.38;5082726;28;45375;-76
2022/08/02 00:03:10;;;;;;;;;8.00;8.00;;;;;22.29;64.59;101396.44;5082261;28;45565;-76
2022/08/02 00:05:35;;;;;;;;;7.33;6.67;;;;;22.25;64.84;101393.38;5097754;27;46254;-76
2022/08/02 00:08:01;;;;;;;;;9.67;8.67;;;;;22.22;64.95;101398.44;5083167;28;45354;-76
2022/08/02 00:10:26;;;;;;;;;8.33;8.33;;;;;22.16;64.82;101389.38;5083199;28;45329;-76
2022/08/02 00:12:52;;;;;;;;;8.00;8.00;;;;;22.16;65.35;101389.38;5082476;28;45227;-76
2022/08/02 00:15:17;;;;;;;;;6.33;6.33;;;;;22.10;64.79;101393.03;5068455;28;45378;-76
2022/08/02 00:17:43;;;;;;;;;9.00;9.00;;;;;22.01;65.74;101396.09;5086453;27;45381;-76
2022/08/02 00:20:10;;;;;;;;;8.00;8.00;;;;;21.98;66.13;101393.88;5062264;28;45362;-76
2022/08/02 00:22:35;;;;;;;;;7.00;6.33;;;;;21.96;65.54;101409.50;5081649;28;45480;-76
2022/08/02 00:25:01;;;;;;;;;7.00;7.00;;;;;21.86;65.49;101395.75;5082544;28;45609;-76
2022/08/02 00:27:26;;;;;;;;;8.00;8.00;;;;;21.88;65.76;101404.47;5077814;28;45489;-76
2022/08/02 00:29:52;;;;;;;;;7.00;7.00;;;;;21.78;66.09;101403.16;5081999;27;45362;-76
2022/08/02 00:32:17;;;;;;;;;6.67;6.67;;;;;21.73;66.58;101400.28;5082281;28;45378;-76
2022/08/02 00:34:42;;;;;;;;;8.33;7.00;;;;;21.75;66.30;101402.75;5082623;28;45535;-76
2022/08/02 00:37:07;;;;;;;;;6.33;6.33;;;;;21.71;66.56;101397.00;5081226;28;48450;-76
2022/08/02 00:39:33;;;;;;;;;8.00;7.00;;;;;21.68;66.61;101397.47;5091757;27;45420;-76
2022/08/02 00:41:58;;;;;;;;;7.00;7.00;;;;;21.65;66.80;101389.81;5082137;28;45768;-76
2022/08/02 00:44:24;;;;;;;;;7.00;7.00;;;;;21.61;66.56;101381.34;5068986;28;45354;-76
2022/08/02 00:46:49;;;;;;;;;6.67;6.67;;;;;21.53;66.74;101382.53;5076548;28;46231;-76
2022/08/02 00:49:15;;;;;;;;;8.67;6.67;;;;;21.55;67.30;101387.69;5072173;28;45604;-76
2022/08/02 00:51:40;;;;;;;;;8.33;8.33;;;;;21.52;66.73;101386.25;5067636;28;45431;-76
2022/08/02 00:54:06;;;;;;;;;7.00;7.00;;;;;21.43;67.34;101393.09;5073817;28;45484;-76
2022/08/02 00:56:32;;;;;;;;;8.33;8.33;;;;;21.42;67.26;101389.53;5092301;27;46978;-76
2022/08/02 00:58:57;;;;;;;;;9.00;8.00;;;;;21.39;67.93;101397.28;5082629;28;45293;-76
2022/08/02 01:01:37;;;;;;;;;9.00;8.33;;;;;21.34;68.07;101405.28;5082768;28;45384;-76
2022/08/02 01:04:06;;;;;;;;;7.33;7.33;;;;;21.27;68.22;101408.91;5081883;28;45789;-76
2022/08/02 01:06:32;;;;;;;;;9.00;9.00;;;;;21.24;68.76;101403.13;5079094;28;45981;-76
2022/08/02 01:09:00;;;;;;;;;9.00;9.00;;;;;21.24;68.86;101403.94;5095423;27;45302;-76
2022/08/02 01:11:26;;;;;;;;;8.00;8.00;;;;;21.21;68.82;101407.09;5079844;28;45388;-76
2022/08/02 01:13:53;;;;;;;;;4.00;3.00;;;;;21.15;69.14;101413.44;5078010;28;45430;-76
2022/08/02 01:16:22;;;;;;;;;9.00;9.00;;;;;21.13;69.44;101410.16;5073158;27;45310;-76
2022/08/02 01:18:53;;;;;;;;;8.00;8.00;;;;;21.09;69.44;101409.78;5085166;27;45491;-76
2022/08/02 01:21:37;;;;;;;;;10.00;10.00;;;;;21.08;69.63;101415.41;5081138;28;45227;-76
2022/08/02 01:24:20;;;;;;;;;8.00;8.00;;;;;21.02;69.86;101411.75;5079182;28;47409;-76
2022/08/02 01:26:51;;;;;;;;;9.00;8.00;;;;;20.98;69.89;101411.34;5081140;28;45565;-76
2022/08/02 01:29:25;;;;;;;;;9.00;9.00;;;;;20.99;70.18;101423.84;5081316;28;45617;-76
2022/08/02 01:32:09;;;;;;;;;11.67;10.67;;;;;20.97;70.36;101425.09;5081643;28;45365;-76
2022/08/02 01:34:42;;;;;;;;;9.67;9.67;;;;;20.86;70.47;101419.38;5092649;27;46266;-76
2022/08/02 01:37:17;;;;;;;;;10.33;10.33;;;;;20.91;70.43;101424.13;5085820;27;48165;-76
2022/08/02 01:39:44;;;;;;;;;12.33;12.00;;;;;20.89;70.27;101418.94;5066683;28;45279;-76
2022/08/02 01:42:10;;;;;;;;;8.67;8.00;;;;;20.84;70.57;101418.81;5080808;28;45479;-76
2022/08/02 01:44:40;;;;;;;;;6.00;6.00;;;;;20.79;70.69;101419.47;5080826;27;45469;-76
2022/08/02 01:47:09;;;;;;;;;7.33;7.33;;;;;20.75;70.84;101415.59;5082899;27;48182;-76
2022/08/02 01:49:38;;;;;;;;;10.33;9.33;;;;;20.74;70.57;101423.91;5067828;28;45452;-76
2022/08/02 01:52:21;;;;;;;;;10.00;10.00;;;;;20.74;70.82;101423.91;5066576;28;45511;-76
2022/08/02 01:55:07;;;;;;;;;8.00;8.00;;;;;20.68;70.60;101412.13;5080991;28;45393;-76
2022/08/02 01:57:39;;;;;;;;;12.67;11.33;;;;;20.64;70.92;101419.03;5082153;27;48436;-76
2022/08/02 02:00:07;;;;;;;;;9.67;9.67;;;;;20.61;71.20;101431.09;5075094;28;45846;-76
2022/08/02 02:02:36;;;;;;;;;9.67;9.67;;;;;20.58;71.53;101417.22;5081641;28;44759;-75
2022/08/02 02:05:02;;;;;;;;;9.00;9.00;;;;;20.54;71.51;101417.69;5081078;28;45495;-76
2022/08/02 02:07:30;;;;;;;;;8.33;8.33;;;;;20.53;71.39;101426.81;5082854;27;47147;-76
2022/08/02 02:09:59;;;;;;;;;11.67;11.00;;;;;20.50;71.84;101421.88;5081195;28;45235;-76
2022/08/02 02:12:26;;;;;;;;;9.00;9.00;;;;;20.42;71.93;101409.50;5080222;28;45332;-76
2022/08/02 02:14:54;;;;;;;;;9.67;9.67;;;;;20.40;72.24;101408.91;5081075;28;47358;-76
2022/08/02 02:17:21;;;;;;;;;8.33;8.33;;;;;20.40;72.05;101397.28;5092646;27;45565;-76
2022/08/02 02:19:48;;;;;;;;;11.00;11.00;;;;;20.36;72.28;101390.69;5081906;28;45424;-76
2022/08/02 02:22:13;;;;;;;;;9.00;9.00;;;;;20.35;72.44;101394.44;5080269;28;45477;-76
2022/08/02 02:24:38;;;;;;;;;9.00;9.00;;;;;20.35;72.48;101397.13;5079942;28;46421;-76
2022/08/02 02:27:05;;;;;;;;;8.33;8.33;;;;;20.32;72.27;101387.59;5083991;28;46653;-76
2022/08/02 02:29:33;;;;;;;;;8.00;7.33;;;;;20.30;72.51;101392.41;5069769;27;45160;-76
2022/08/02 02:31:59;;;;;;;;;9.33;9.33;;;;;20.31;72.19;101396.75;5083531;28;45213;-76
2022/08/02 02:34:32;;;;;;;;;8.00;8.00;;;;;20.26;72.50;101385.81;5082287;28;46436;-76
2022/08/02 02:37:02;;;;;;;;;10.00;8.67;;;;;20.27;71.92;101387.47;5071088;28;46053;-76
2022/08/02 02:39:29;;;;;;;;;12.00;8.67;;;;;20.26;72.49;101386.63;5083822;28;45691;-76
2022/08/02 02:42:00;;;;;;;;;9.00;7.33;;;;;20.23;72.51;101389.75;5085143;28;45343;-76
2022/08/02 02:44:28;;;;;;;;;9.00;8.00;;;;;20.21;72.77;101391.03;5084490;28;45315;-76
2022/08/02 02:46:54;;;;;;;;;9.67;9.33;;;;;20.20;72.73;101392.09;5063976;28;45374;-76
2022/08/02 02:49:21;;;;;;;;;10.00;9.00;;;;;20.22;72.73;101400.78;5062937;28;45264;-76
2022/08/02 02:51:48;;;;;;;;;11.00;11.00;;;;;20.15;72.71;101396.31;5077329;28;44637;-76
2022/08/02 02:54:15;;;;;;;;;10.00;9.67;;;;;20.16;72.74;101391.72;5072233;28;45450;-76
2022/08/02 02:56:42;;;;;;;;;12.67;10.67;;;;;20.07;73.01;101383.09;5078959;28;47467;-75
2022/08/02 02:59:09;;;;;;;;;10.67;10.67;;;;;20.03;72.91;101382.69;5070368;28;45422;-76
2022/08/02 03:01:35;;;;;;;;;9.33;9.33;;;;;20.06;73.23;101384.13;5069990;28;45514;-76
2022/08/02 03:04:05;;;;;;;;;9.33;9.33;;;;;20.04;73.28;101381.66;5069781;28;45259;-76
2022/08/02 03:06:31;;;;;;;;;10.67;10.00;;;;;20.01;73.19;101382.09;5084087;28;45346;-76
2022/08/02 03:08:56;;;;;;;;;9.00;7.67;;;;;20.04;72.93;101395.16;5079240;28;45407;-76
2022/08/02 03:11:23;;;;;;;;;9.67;9.67;;;;;19.98;73.36;101387.91;5074279;28;45725;-76
2022/08/02 03:13:49;;;;;;;;;8.00;8.00;;;;;19.94;73.29;101378.63;5084558;28;45548;-76
2022/08/02 03:16:15;;;;;;;;;11.00;11.00;;;;;19.90;73.41;101380.09;5083583;28;46891;-76
2022/08/02 03:18:42;;;;;;;;;10.33;10.33;;;;;19.86;73.65;101368.09;5067424;28;45324;-76
2022/08/02 03:21:12;;;;;;;;;7.67;7.67;;;;;19.85;73.66;101377.25;5076850;28;45226;-76
2022/08/02 03:23:40;;;;;;;;;9.67;9.67;;;;;19.88;73.97;101377.63;5076476;28;45406;-76
2022/08/02 03:26:07;;;;;;;;;9.67;9.67;;;;;19.83;73.61;101382.03;5082593;28;45362;-76
2022/08/02 03:28:32;;;;;;;;;10.67;10.67;;;;;19.83;73.81;101387.41;5083328;27;45303;-76
2022/08/02 03:30:57;;;;;;;;;10.00;10.00;;;;;19.77;73.72;101381.03;5083743;27;45195;-76
2022/08/02 03:33:24;;;;;;;;;9.00;8.33;;;;;19.74;74.01;101390.41;5083709;27;45568;-76
2022/08/02 03:35:52;;;;;;;;;10.00;10.00;;;;;19.70;74.02;101389.19;5071779;28;45551;-76
2022/08/02 03:38:21;;;;;;;;;10.33;9.00;;;;;19.65;74.11;101387.16;5067482;28;45401;-76
2022/08/02 03:40:48;;;;;;;;;8.67;8.00;;;;;19.63;74.12;101389.25;5084279;27;45326;-76
2022/08/02 03:43:14;;;;;;;;;7.33;7.00;;;;;19.55;74.16;101370.66;5070371;28;45243;-76
2022/08/02 03:45:42;;;;;;;;;7.33;7.33;;;;;19.58;74.33;101385.56;5084686;28;45484;-76
2022/08/02 03:48:10;;;;;;;;;10.33;10.00;;;;;19.51;74.86;101375.63;5084863;28;45375;-76
2022/08/02 03:50:36;;;;;;;;;8.00;8.00;;;;;19.46;74.66;101375.47;5084345;28;45386;-76
2022/08/02 03:53:03;;;;;;;;;8.33;8.33;;;;;19.47;74.83;101370.91;5084872;28;45512;-76
2022/08/02 03:55:28;;;;;;;;;12.00;12.00;;;;;19.42;74.98;101376.94;5084655;28;45362;-76
2022/08/02 03:57:53;;;;;;;;;9.00;9.00;;;;;19.38;75.04;101368.50;5083442;28;45342;-76
2022/08/02 04:00:22;;;;;;;;;7.00;7.00;;;;;19.39;74.92;101370.13;5097093;27;45350;-76
2022/08/02 04:02:48;;;;;;;;;8.00;8.00;;;;;19.40;75.25;101371.78;5072257;28;46242;-76
2022/08/02 04:05:14;;;;;;;;;8.67;8.67;;;;;19.37;75.01;101369.53;5064728;28;45362;-76
2022/08/02 04:07:40;;;;;;;;;8.67;8.00;;;;;19.27;75.32;101359.22;5082690;28;45677;-76
2022/08/02 04:10:05;;;;;;;;;8.00;8.00;;;;;19.34;75.33;101369.13;5094316;27;45267;-76
2022/08/02 04:12:31;;;;;;;;;9.67;9.67;;;;;19.34;74.81;101372.66;5083530;28;45468;-76
2022/08/02 04:14:58;;;;;;;;;10.33;10.33;;;;;19.26;75.45;101368.38;5083953;28;45200;-76
2022/08/02 04:17:26;;;;;;;;;11.00;11.00;;;;;19.22;75.62;101364.47;5094641;27;45168;-76
2022/08/02 04:20:01;;;;;;;;;9.00;9.00;;;;;19.20;75.14;101363.84;5084700;28;45299;-76
2022/08/02 04:22:33;;;;;;;;;11.67;11.00;;;;;19.19;75.63;101362.19;5083503;27;45313;-76
2022/08/02 04:25:01;;;;;;;;;9.67;9.33;;;;;19.22;75.72;101377.94;5081366;28;45394;-75
2022/08/02 04:27:29;;;;;;;;;10.00;9.67;;;;;19.18;75.97;101376.69;5081015;28;45936;-77
2022/08/02 04:29:56;;;;;;;;;11.00;10.33;;;;;19.16;75.43;101368.81;5073327;28;45632;-77
2022/08/02 04:32:23;;;;;;;;;10.67;10.67;;;;;19.16;75.55;101374.22;5087215;27;45488;-77
2022/08/02 04:34:48;;;;;;;;;10.00;9.00;;;;;19.12;75.63;101373.00;5070048;28;45204;-77
2022/08/02 04:37:14;;;;;;;;;10.00;7.67;;;;;19.11;75.63;101371.34;5065310;28;45333;-76
2022/08/02 04:39:42;;;;;;;;;10.00;8.67;;;;;19.13;75.97;101381.91;5081975;28;45338;-77
2022/08/02 04:42:07;;;;;;;;;10.00;10.00;;;;;19.16;75.89;101382.28;5073621;28;45456;-77
2022/08/02 04:44:33;;;;;;;;;10.33;9.67;;;;;19.14;76.11;101380.88;5085752;28;46192;-77
2022/08/02 04:47:01;;;;;;;;;8.33;8.33;;;;;19.11;76.02;101384.81;5085365;28;45405;-77
2022/08/02 04:49:28;;;;;;;;;12.33;10.33;;;;;19.12;76.21;101388.31;5086601;27;45260;-77
2022/08/02 04:51:53;;;;;;;;;13.00;12.00;;;;;19.10;76.41;101382.34;5086475;28;46331;-76
2022/08/02 04:54:19;;;;;;;;;11.00;11.00;;;;;19.10;76.24;101374.25;5087043;28;45446;-77
2022/08/02 04:56:44;;;;;;;;;9.00;9.00;;;;;19.08;76.72;101373.63;5073399;28;45222;-77
2022/08/02 04:59:11;;;;;;;;;11.00;11.00;;;;;19.12;76.75;101378.38;5074472;28;48156;-77
2022/08/02 05:01:38;;;;;;;;;10.67;10.67;;;;;19.15;76.61;101377.13;5076380;28;45525;-77
2022/08/02 05:04:03;;;;;;;;;11.33;11.00;;;;;19.12;76.86;101369.47;5082229;28;45372;-76
2022/08/02 05:06:29;;;;;;;;;10.00;9.00;;;;;19.14;76.50;101376.31;5067825;28;45398;-78
2022/08/02 05:08:54;;;;;;;;;10.33;9.67;;;;;19.13;76.78;101369.25;5090981;27;45920;-78
2022/08/02 05:11:24;;;;;;;;;10.67;9.00;;;;;19.21;76.89;101376.25;5069696;28;45974;-75
2022/08/02 05:13:49;;;;;;;;;12.33;11.00;;;;;19.25;76.73;101371.28;5079100;28;46539;-75
2022/08/02 05:16:15;;;;;;;;;10.67;10.00;;;;;19.25;76.90;101382.84;5084860;27;45352;-74
2022/08/02 05:18:40;;;;;;;;;10.67;10.67;;;;;19.24;76.64;101370.44;5084476;27;45671;-74
2022/08/02 05:21:05;;;;;;;;;8.67;8.67;;;;;19.25;77.15;101366.69;5079162;28;45434;-74
2022/08/02 05:23:31;;;;;;;;;9.67;9.00;;;;;19.27;77.07;101375.38;5079349;28;46196;-74
2022/08/02 05:25:56;;;;;;;;;9.67;9.67;;;;;19.34;77.24;101382.63;5079044;28;45495;-74
2022/08/02 05:28:22;;;;;;;;;12.00;11.00;;;;;19.35;76.72;101374.31;5079689;27;45293;-74
2022/08/02 05:30:47;;;;;;;;;11.67;10.00;;;;;19.40;76.65;101382.56;5079194;28;45574;-74
2022/08/02 05:33:12;;;;;;;;;12.00;9.33;;;;;19.45;76.56;101384.59;5079070;28;45646;-75
2022/08/02 05:35:37;;;;;;;;;10.00;10.00;;;;;19.57;76.50;101392.81;5074448;28;45466;-75
2022/08/02 05:38:03;;;;;;;;;10.00;10.00;;;;;19.63;76.09;101388.44;5073843;28;45402;-74
2022/08/02 05:40:28;;;;;;;;;10.67;8.67;;;;;19.67;76.15;101387.75;5073754;28;45896;-74
2022/08/02 05:42:54;;;;;;;;;10.67;8.67;;;;;19.70;76.39;101393.75;5058370;28;46392;-74
2022/08/02 05:45:20;;;;;;;;;12.33;12.33;;;;;19.73;76.09;101385.22;5066017;28;45632;-73
2022/08/02 05:47:45;;;;;;;;;13.00;10.00;;;;;19.75;76.09;101397.44;5072636;28;45498;-75
2022/08/02 05:50:11;;;;;;;;;6.33;6.33;;;;;19.84;76.00;101397.19;5065199;28;45941;-75
2022/08/02 05:52:48;;;;;;;;;9.00;9.00;;;;;19.91;75.96;101401.44;5063815;27;46287;-76
2022/08/02 05:55:27;;;;;;;;;13.67;11.67;;;;;19.96;76.30;101408.88;5074501;28;45462;-75
2022/08/02 05:58:12;;;;;;;;;10.00;10.00;;;;;19.99;75.98;101399.53;5066633;27;45380;-75
2022/08/02 06:00:40;;;;;;;;;12.00;11.00;;;;;20.04;75.95;101400.56;5078753;28;45322;-76
2022/08/02 06:03:25;;;;;;;;;10.00;10.00;;;;;20.12;75.84;101401.31;5080829;28;47065;-74
2022/08/02 06:06:15;;;;;;;;;9.33;9.33;;;;;20.19;75.56;101407.47;5091393;27;45271;-75
2022/08/02 06:08:50;;;;;;;;;14.00;12.00;;;;;20.22;75.56;101398.91;5082424;28;45467;-75
2022/08/02 06:11:23;;;;;;;;;10.67;9.00;;;;;20.31;75.02;101399.44;5081956;28;45627;-76
2022/08/02 06:13:50;;;;;;;;;11.00;9.00;;;;;20.37;74.93;101393.16;5082240;28;45334;-76
2022/08/02 06:16:16;;;;;;;;;8.00;8.00;;;;;20.43;74.95;101388.72;5086146;27;45431;-76
2022/08/02 06:18:42;;;;;;;;;7.00;7.00;;;;;20.47;73.97;101381.03;5082446;28;45333;-75
2022/08/02 06:21:09;;;;;;;;;6.00;6.00;;;;;20.55;73.81;101381.53;5081940;28;45450;-76
2022/08/02 06:23:40;;;;;;;;;8.00;7.00;;;;;20.61;73.80;101389.78;5081678;28;45439;-76
2022/08/02 06:26:08;;;;;;;;;6.67;5.67;;;;;20.69;73.52;101390.28;5080518;28;45397;-76
2022/08/02 06:28:36;;;;;;;;;6.00;6.00;;;;;20.71;73.59;101383.84;5077538;27;45386;-76
2022/08/02 06:31:02;;;;;;;;;7.00;6.00;;;;;20.83;73.88;101387.41;5076280;28;45498;-78
2022/08/02 06:33:27;;;;;;;;;9.00;7.00;;;;;20.90;74.08;101396.31;5083429;27;47997;-78
2022/08/02 06:36:30;;;;;;;;;5.00;5.00;;;;;20.98;73.72;101397.03;5081871;27;45304;-78
2022/08/02 06:39:11;;;;;;;;;6.67;6.67;;;;;21.00;73.12;101384.94;5081946;28;45283;-76
2022/08/02 06:41:41;;;;;;;;;6.00;6.00;;;;;21.05;72.59;101376.16;5081617;28;45670;-76
2022/08/02 06:44:07;;;;;;;;;6.33;6.33;;;;;21.13;72.86;101383.13;5081715;28;45462;-76
2022/08/02 06:46:33;;;;;;;;;6.00;6.00;;;;;21.14;72.25;101379.34;5081685;28;45222;-75
2022/08/02 06:48:59;;;;;;;;;4.00;4.00;;;;;21.24;72.45;101389.59;5081914;28;45424;-76
2022/08/02 06:51:25;;;;;;;;;6.33;6.00;;;;;21.25;71.84;101388.56;5081374;28;45413;-74
2022/08/02 06:53:50;;;;;;;;;6.67;6.33;;;;;21.30;71.94;101388.69;5080937;28;45552;-76
2022/08/02 06:56:15;;;;;;;;;7.00;7.00;;;;;21.38;71.44;101392.94;5081577;28;45377;-77
2022/08/02 06:58:41;;;;;;;;;6.33;6.33;;;;;;;;5081256;28;45393;-77
2022/08/02 07:01:06;;;;;;;;;8.00;6.33;;;;;21.55;70.00;101396.63;5079904;28;47318;-78
2022/08/02 07:03:33;;;;;;;;;3.00;3.00;;;;;21.62;70.59;101393.81;5081365;28;45404;-78
2022/08/02 07:05:59;;;;;;;;;6.00;4.33;;;;;21.74;70.00;101401.13;5085001;27;45321;-78
2022/08/02 07:08:25;;;;;;;;;4.33;3.00;;;;;21.82;69.84;101406.22;5080276;28;45386;-77
2022/08/02 07:10:50;;;;;;;;;3.00;3.00;;;;;21.87;69.02;101409.03;5081494;28;45562;-78
2022/08/02 07:13:16;;;;;;;;;5.00;4.33;;;;;21.93;68.96;101399.97;5080477;28;45438;-77
2022/08/02 07:15:41;;;;;;;;;2.00;2.00;;;;;22.06;66.69;101415.16;5081857;27;45292;-78
2022/08/02 07:18:06;;;;;;;;;2.67;2.67;;;;;22.11;65.99;101416.31;5090297;27;45316;-77
2022/08/02 07:20:32;;;;;;;;;2.00;1.00;;;;;22.20;65.60;101420.31;5080549;28;45318;-77
2022/08/02 07:22:57;;;;;;;;;0.67;0.67;;;;;22.30;64.52;101422.47;5081011;28;45407;-78
2022/08/02 07:25:23;;;;;;;;;3.00;1.00;;;;;22.38;64.48;101413.13;5081091;28;45288;-77
2022/08/02 07:27:49;;;;;;;;;1.00;1.00;;;;;22.48;63.75;101418.78;5081243;28;45325;-77
2022/08/02 07:30:14;;;;;;;;;2.33;2.33;;;;;22.53;63.58;101415.34;5081221;28;45207;-78
2022/08/02 07:32:40;;;;;;;;;2.00;2.00;;;;;22.57;63.41;101408.41;5081041;28;45384;-78
2022/08/02 07:35:06;;;;;;;;;2.00;1.00;;;;;22.65;63.06;101407.22;5079354;28;45576;-77
2022/08/02 07:37:33;;;;;;;;;3.00;3.00;;;;;22.72;63.38;101407.94;5081725;28;45326;-78
2022/08/02 07:39:59;;;;;;;;;1.00;1.00;;;;;22.81;63.07;101414.59;5081038;28;45311;-78
2022/08/02 07:42:24;;;;;;;;;2.67;2.67;;;;;22.89;62.57;101416.09;5082383;28;45373;-75
2022/08/02 07:44:59;;;;;;;;;2.00;2.00;;;;;22.95;62.14;101422.44;5073631;28;45455;-80
2022/08/02 07:47:24;;;;;;;;;3.33;3.00;;;;;23.00;61.83;101414.41;5074493;28;45419;-79
2022/08/02 07:49:50;;;;;;;;;2.67;2.33;;;;;22.98;61.50;101404.88;5079659;28;45436;-78
2022/08/02 07:52:15;;;;;;;;;4.00;3.00;;;;;23.06;62.00;101412.63;5080128;28;45482;-77
2022/08/02 07:54:40;;;;;;;;;3.00;3.00;;;;;23.14;62.18;101408.69;5078889;28;47145;-75
2022/08/02 07:57:06;;;;;;;;;2.67;2.67;;;;;23.23;61.04;101412.66;5077782;28;45272;-76
2022/08/02 07:59:31;;;;;;;;;2.67;2.67;;;;;23.32;61.24;101416.59;5062164;28;46188;-76
2022/08/02 08:01:56;;;;;;;;;4.00;4.00;;;;;23.37;60.91;101405.06;5059635;28;45648;-77
2022/08/02 08:04:21;;;;;;;;;3.33;2.67;;;;;23.44;61.12;101402.22;5063502;28;45294;-77
2022/08/02 08:06:50;;;;;;;;;4.33;4.33;;;;;23.54;61.00;101406.97;5076737;28;45394;-75
2022/08/02 08:09:16;;;;;;;;;2.67;2.00;;;;;23.63;60.58;101399.25;5077543;27;45415;-75
2022/08/02 08:11:41;;;;;;;;;4.67;4.00;;;;;23.65;60.26;101407.97;5077877;28;45484;-76
2022/08/02 08:14:07;;;;;;;;;2.33;2.33;;;;;23.68;59.92;101392.00;5077409;27;45434;-75
2022/08/02 08:16:32;;;;;;;;;4.33;4.33;;;;;23.85;59.80;101407.44;5085833;27;45251;-76
2022/08/02 08:18:58;;;;;;;;;4.00;3.00;;;;;23.96;60.03;101403.00;5082772;27;47353;-75
2022/08/02 08:21:24;;;;;;;;;6.00;4.00;;;;;24.04;60.15;101410.75;5079479;27;47364;-75
2022/08/02 08:24:05;;;;;;;;;3.33;3.33;;;;;24.15;59.02;101409.00;5076259;28;45503;-75
2022/08/02 08:26:31;;;;;;;;;5.00;5.00;;;;;24.20;59.11;101395.50;5066201;28;45352;-74
2022/08/02 08:28:56;;;;;;;;;3.33;3.33;;;;;24.26;58.86;101396.41;5078675;28;45342;-74
2022/08/02 08:31:21;;;;;;;;;3.33;3.33;;;;;24.33;58.54;101391.59;5064984;27;46267;-75
2022/08/02 08:33:46;;;;;;;;;3.00;3.00;;;;;24.42;58.78;101402.84;5085281;27;54345;-74
2022/08/02 08:36:12;;;;;;;;;2.67;2.67;;;;;24.50;58.48;101403.47;5078741;28;45430;-74
2022/08/02 08:38:37;;;;;;;;;4.00;4.00;;;;;24.56;58.35;101397.03;5065981;28;46112;-74
2022/08/02 08:41:02;;;;;;;;;5.00;5.00;;;;;24.61;58.04;101401.72;5064991;28;48114;-74
2022/08/02 08:43:28;;;;;;;;;4.33;4.33;;;;;24.61;57.91;101397.09;5077996;28;45439;-74
2022/08/02 08:45:53;;;;;;;;;5.00;5.00;;;;;24.68;57.77;101402.34;5076928;28;45394;-75
2022/08/02 08:48:22;;;;;;;;;5.33;4.00;;;;;24.73;58.55;101405.13;5079350;28;45346;-75
2022/08/02 08:51:14;;;;;;;;;4.00;4.00;;;;;24.82;57.41;101395.44;5093388;27;48361;-75
2022/08/02 08:53:42;;;;;;;;;5.33;4.33;;;;;24.91;56.90;101403.16;5077549;28;45373;-75
2022/08/02 08:56:11;;;;;;;;;5.33;4.33;;;;;24.94;57.39;101399.94;5079011;28;45342;-74
2022/08/02 08:58:39;;;;;;;;;7.33;6.00;;;;;25.04;56.89;101401.94;5079156;28;45483;-76
2022/08/02 09:01:05;;;;;;;;;5.33;5.33;;;;;25.06;56.89;101391.63;5077234;28;47106;-76
2022/08/02 09:03:31;;;;;;;;;4.33;4.00;;;;;25.15;56.99;101400.13;5077725;28;45468;-75
2022/08/02 09:05:57;;;;;;;;;6.33;6.33;;;;;25.27;57.06;101400.81;5078715;28;45528;-74
2022/08/02 09:08:23;;;;;;;;;6.67;6.67;;;;;25.30;56.63;101392.13;5078876;28;45472;-75
2022/08/02 09:10:48;;;;;;;;;4.00;4.00;;;;;25.40;56.31;101399.56;5078728;28;45277;-75
2022/08/02 09:13:15;;;;;;;;;6.00;4.67;;;;;25.46;55.93;101384.91;5079087;27;45367;-75
2022/08/02 09:15:42;;;;;;;;;5.33;5.33;;;;;25.49;56.21;101385.50;5078988;27;45503;-74
2022/08/02 09:18:08;;;;;;;;;4.00;3.00;;;;;25.58;55.98;101381.19;5077777;27;45870;-74
2022/08/02 09:20:49;;;;;;;;;5.00;5.00;;;;;25.65;55.10;101394.63;5077551;28;47137;-75
2022/08/02 09:23:14;;;;;;;;;4.67;4.67;;;;;25.62;55.27;101387.78;5078837;28;45279;-75
2022/08/02 09:25:40;;;;;;;;;4.00;4.00;;;;;25.64;55.01;101385.63;5085903;27;45346;-75
2022/08/02 09:28:05;;;;;;;;;4.00;4.00;;;;;25.75;54.84;101391.97;5078875;28;45615;-74
2022/08/02 09:30:32;;;;;;;;;7.00;6.00;;;;;25.81;54.97;101393.66;5083729;27;46836;-75
2022/08/02 09:32:58;;;;;;;;;4.00;4.00;;;;;25.89;55.12;101388.78;5077535;28;45396;-76
2022/08/02 09:35:35;;;;;;;;;5.33;5.00;;;;;25.94;54.28;101400.53;5083210;27;45319;-74
2022/08/02 09:38:12;;;;;;;;;5.33;5.33;;;;;26.01;54.16;101397.56;5081967;28;45454;-73
2022/08/02 09:40:39;;;;;;;;;6.00;6.00;;;;;26.09;54.53;101385.34;5081921;28;45424;-74
2022/08/02 09:43:06;;;;;;;;;5.33;5.33;;;;;26.18;53.96;101380.22;5093863;27;46013;-73
2022/08/02 09:45:36;;;;;;;;;5.00;5.00;;;;;26.23;52.96;101388.44;5076609;28;45493;-74
2022/08/02 09:48:05;;;;;;;;;4.67;4.67;;;;;26.32;53.00;101388.75;5080449;28;45378;-74
2022/08/02 09:50:31;;;;;;;;;4.00;3.00;;;;;26.39;53.58;101366.75;5082040;28;46363;-74
2022/08/02 09:52:57;;;;;;;;;5.67;5.67;;;;;26.50;53.06;101371.13;5082494;27;45478;-74
2022/08/02 09:55:23;;;;;;;;;4.00;4.00;;;;;26.53;52.68;101376.03;5080617;27;45596;-75
2022/08/02 09:57:49;;;;;;;;;6.33;6.33;;;;;26.56;52.77;101371.97;5081062;28;45583;-74
2022/08/02 10:00:14;;;;;;;;;5.00;5.00;;;;;26.57;52.31;101358.06;5062819;28;46839;-74
2022/08/02 10:03:09;;;;;;;;;5.33;5.33;;;;;26.67;52.09;101372.81;5079620;28;45360;-74
2022/08/02 10:05:53;;;;;;;;;6.00;5.67;;;;;26.70;52.54;101362.19;5080382;28;45520;-75
2022/08/02 10:08:19;;;;;;;;;7.33;6.33;;;;;26.77;51.42;101359.22;5080611;28;45373;-75
2022/08/02 10:10:44;;;;;;;;;9.00;6.00;;;;;26.84;51.49;101362.50;5064737;28;47770;-75
2022/08/02 10:13:09;;;;;;;;;6.00;6.00;;;;;26.92;51.48;101368.50;5061523;28;45303;-75
2022/08/02 10:15:38;;;;;;;;;6.67;5.33;;;;;27.04;51.00;101363.63;5067515;28;45908;-75
2022/08/02 10:18:05;;;;;;;;;5.67;5.33;;;;;27.10;51.16;101357.09;5074286;28;45516;-75
2022/08/02 10:20:38;;;;;;;;;6.67;6.67;;;;;27.20;51.22;101355.44;5095449;27;46996;-75
2022/08/02 10:23:06;;;;;;;;;8.00;7.33;;;;;27.33;51.20;101360.34;5082123;28;45353;-75
2022/08/02 10:25:32;;;;;;;;;5.33;5.33;;;;;27.42;50.04;101354.38;5094922;27;45481;-74
2022/08/02 10:27:58;;;;;;;;;4.33;4.33;;;;;27.56;50.09;101360.91;5071532;28;46146;-73
2022/08/02 10:30:25;;;;;;;;;4.67;4.67;;;;;27.69;49.62;101356.81;5082029;28;45287;-73
2022/08/02 10:32:52;;;;;;;;;4.00;3.67;;;;;27.79;49.33;101347.78;5078441;28;45988;-74
2022/08/02 10:35:22;;;;;;;;;6.00;5.00;;;;;27.97;49.14;101353.72;5084898;27;45258;-74
2022/08/02 10:37:52;;;;;;;;;6.00;5.00;;;;;28.16;47.90;101358.59;5081580;28;45318;-73
2022/08/02 10:40:25;;;;;;;;;5.67;5.67;;;;;28.25;48.22;101351.44;5081845;28;45539;-72
2022/08/02 10:42:54;;;;;;;;;6.00;6.00;;;;;28.43;47.81;101354.69;5081552;28;45322;-74
2022/08/02 10:45:22;;;;;;;;;7.00;7.00;;;;;28.61;47.51;101350.47;5083553;27;45327;-74
2022/08/02 10:47:59;;;;;;;;;7.67;7.67;;;;;28.85;46.97;101358.78;5079270;28;46301;-75
2022/08/02 10:50:46;;;;;;;;;6.00;6.00;;;;;29.06;47.17;101355.94;5083111;27;48199;-76
2022/08/02 10:53:24;;;;;;;;;8.00;7.33;;;;;29.22;46.62;101353.91;5067174;27;45409;-77
2022/08/02 10:55:51;;;;;;;;;7.00;5.00;;;;;29.29;46.06;101337.13;5063272;28;45352;-78
2022/08/02 10:58:21;;;;;;;;;7.00;7.00;;;;;29.54;46.25;101350.88;5080940;28;45468;-76
2022/08/02 11:00:48;;;;;;;;;6.67;6.67;;;;;29.76;46.48;101339.44;5094000;27;48265;-78
2022/08/02 11:03:28;;;;;;;;;7.67;6.67;;;;;30.08;45.89;101348.91;5065545;28;45349;-78
2022/08/02 11:06:02;;;;;;;;;8.00;7.00;;;;;30.25;44.78;101339.44;5091720;27;45421;-77
2022/08/02 11:08:27;;;;;;;;;7.67;7.67;;;;;30.27;42.18;101333.66;5079352;28;45421;-76
2022/08/02 11:11:09;;;;;;;;;6.00;6.00;;;;;30.33;42.61;101338.78;5072955;27;45519;-76
2022/08/02 11:14:05;;;;;;;;;8.00;6.00;;;;;30.54;41.90;101341.25;5078204;27;45314;-77
2022/08/02 11:16:55;;;;;;;;;7.67;7.00;;;;;30.71;41.30;101337.94;5075850;27;45650;-76
2022/08/02 11:19:27;;;;;;;;;5.67;5.67;;;;;30.75;42.05;101335.44;5079123;27;46978;-77
2022/08/02 11:22:00;;;;;;;;;4.33;4.33;;;;;30.89;42.15;101338.28;5078881;28;47052;-77
2022/08/02 11:24:29;;;;;;;;;5.67;5.67;;;;;31.02;41.55;101333.94;5094031;27;45433;-74
2022/08/02 11:26:55;;;;;;;;;5.67;5.67;;;;;31.18;40.91;101331.75;5062273;28;45480;-73